Time;durP1;ratioP1;P1;durP2;ratioP2;P2;SDS_P1;SDS_P2;PMS_P1;PMS_P2;Temp;Humidity;BMP_temperature;BMP_pressure;BME280_temperature;BME280_humidity;BME280_pressure;Samples;Min_cycle;Max_cycle;Signal;HPM_P1;HPM_P2
2023/03/02 00:00:21;;;;;;;49.58;27.75;;;-1.60;99.90;;;;;;2080669;28;20020;-75
2023/03/02 00:01:25;;;;;;;49.38;28.00;;;-1.70;99.90;;;;;;2086164;28;20039;-75
2023/03/02 00:02:25;;;;;;;52.28;28.10;;;-1.70;99.90;;;;;;2078719;28;20130;-75
2023/03/02 00:03:27;;;;;;;50.28;28.15;;;-1.70;99.90;;;;;;2097082;28;20122;-75
2023/03/02 00:04:32;;;;;;;50.55;27.35;;;-1.70;99.90;;;;;;2095233;28;20030;-74
2023/03/02 00:05:34;;;;;;;51.83;28.17;;;-1.60;99.90;;;;;;2079513;28;20142;-71
2023/03/02 00:06:36;;;;;;;50.72;28.13;;;-1.70;99.90;;;;;;2091502;28;20036;-76
2023/03/02 00:07:37;;;;;;;51.65;28.52;;;-1.70;99.90;;;;;;2093293;28;20041;-75
2023/03/02 00:08:38;;;;;;;50.50;28.15;;;-1.70;99.90;;;;;;2077082;28;20033;-75
2023/03/02 00:09:39;;;;;;;50.15;27.70;;;-1.70;99.90;;;;;;2079233;28;20049;-75
2023/03/02 00:10:40;;;;;;;47.78;26.67;;;-1.70;99.90;;;;;;2074066;28;20094;-75
2023/03/02 00:11:40;;;;;;;47.25;26.30;;;-1.70;99.90;;;;;;2073638;28;20677;-75
2023/03/02 00:12:41;;;;;;;45.90;26.10;;;-1.70;99.90;;;;;;2092004;28;20086;-74
2023/03/02 00:13:42;;;;;;;51.63;26.85;;;-1.80;99.90;;;;;;2100828;28;20048;-75
2023/03/02 00:14:43;;;;;;;48.33;25.52;;;-1.80;99.90;;;;;;2075316;28;20496;-75
2023/03/02 00:15:44;;;;;;;45.25;25.60;;;-1.80;99.90;;;;;;2082988;28;20041;-75
2023/03/02 00:16:44;;;;;;;46.05;25.77;;;-1.80;99.90;;;;;;2082208;28;20235;-75
2023/03/02 00:17:45;;;;;;;46.33;25.92;;;-1.80;99.90;;;;;;2078207;28;20112;-74
2023/03/02 00:18:46;;;;;;;46.97;26.45;;;-1.80;99.90;;;;;;2077800;28;20029;-75
2023/03/02 00:19:46;;;;;;;50.55;26.45;;;-1.80;99.90;;;;;;2082206;28;20029;-75
2023/03/02 00:20:47;;;;;;;51.45;27.42;;;-1.80;99.90;;;;;;2077175;28;20230;-75
2023/03/02 00:21:48;;;;;;;52.10;27.90;;;-1.80;99.90;;;;;;2095562;28;20036;-75
2023/03/02 00:22:48;;;;;;;51.58;27.95;;;-1.70;99.90;;;;;;2096945;28;20139;-75
2023/03/02 00:23:50;;;;;;;52.13;27.83;;;-1.70;99.90;;;;;;2082532;28;20033;-72
2023/03/02 00:24:51;;;;;;;50.70;27.75;;;-1.70;99.90;;;;;;2080659;28;20041;-73
2023/03/02 00:25:51;;;;;;;50.10;27.83;;;-1.70;99.90;;;;;;2083090;28;20077;-75
2023/03/02 00:26:52;;;;;;;49.40;27.38;;;-1.70;99.90;;;;;;2085701;28;20098;-74
2023/03/02 00:27:53;;;;;;;50.72;26.65;;;-1.70;99.90;;;;;;2085786;28;20029;-73
2023/03/02 00:28:53;;;;;;;48.92;27.00;;;-1.70;99.90;;;;;;2078748;28;20060;-74
2023/03/02 00:29:57;;;;;;;49.22;26.95;;;-1.70;99.90;;;;;;2080504;28;20407;-75
2023/03/02 00:30:57;;;;;;;48.33;26.52;;;-1.70;99.90;;;;;;2074114;28;20029;-74
2023/03/02 00:31:58;;;;;;;48.08;26.35;;;-1.70;99.90;;;;;;2076723;28;20588;-75
2023/03/02 00:32:59;;;;;;;47.60;26.00;;;-1.80;99.90;;;;;;2085008;28;20028;-75
2023/03/02 00:33:59;;;;;;;48.83;26.38;;;-1.80;99.90;;;;;;2080521;28;20435;-75
2023/03/02 00:35:00;;;;;;;43.50;25.42;;;-1.80;99.90;;;;;;2068569;28;20378;-74
2023/03/02 00:36:01;;;;;;;46.55;25.98;;;-1.80;99.90;;;;;;2082153;28;20111;-74
2023/03/02 00:37:02;;;;;;;47.90;26.88;;;-1.80;99.90;;;;;;2077754;28;20359;-76
2023/03/02 00:38:03;;;;;;;44.58;25.13;;;-1.80;99.90;;;;;;2082261;28;20439;-73
2023/03/02 00:39:03;;;;;;;48.15;25.90;;;-1.90;99.90;;;;;;2085058;28;20580;-74
2023/03/02 00:40:08;;;;;;;48.53;26.15;;;-1.90;99.90;;;;;;2069326;28;20037;-74
2023/03/02 00:41:11;;;;;;;48.25;26.13;;;-1.90;99.90;;;;;;2072367;28;20021;-76
2023/03/02 00:42:11;;;;;;;47.15;25.65;;;-1.90;99.90;;;;;;2074873;28;20480;-74
2023/03/02 00:43:12;;;;;;;48.88;26.65;;;-1.90;99.90;;;;;;2096571;28;20039;-74
2023/03/02 00:44:16;;;;;;;45.20;25.83;;;-1.90;99.90;;;;;;2082426;28;20158;-75
2023/03/02 00:45:16;;;;;;;48.08;26.45;;;-2.00;99.90;;;;;;2076106;28;20053;-74
2023/03/02 00:46:19;;;;;;;48.35;26.52;;;-2.00;99.90;;;;;;2081925;28;20037;-74
2023/03/02 00:47:20;;;;;;;46.45;25.83;;;-2.00;99.90;;;;;;2074002;28;20141;-74
2023/03/02 00:48:21;;;;;;;47.90;26.33;;;-2.00;99.90;;;;;;2087808;28;20036;-74
2023/03/02 00:49:22;;;;;;;47.00;26.13;;;-2.00;99.90;;;;;;2094813;28;20028;-74
2023/03/02 00:50:23;;;;;;;46.50;26.05;;;-2.00;99.90;;;;;;2075085;28;20069;-73
2023/03/02 00:51:24;;;;;;;45.20;25.40;;;-2.00;99.90;;;;;;2077897;28;20280;-74
2023/03/02 00:52:24;;;;;;;50.78;26.90;;;-2.00;99.90;;;;;;2074482;28;20043;-76
2023/03/02 00:53:25;;;;;;;48.53;26.70;;;-2.00;99.90;;;;;;2082977;28;20518;-74
2023/03/02 00:54:25;;;;;;;49.47;26.27;;;-2.00;99.90;;;;;;2082076;28;20419;-76
2023/03/02 00:55:26;;;;;;;49.00;25.95;;;-2.00;99.90;;;;;;2077460;28;20052;-75
2023/03/02 00:56:27;;;;;;;48.55;26.90;;;-2.00;99.90;;;;;;2079580;28;20644;-74
2023/03/02 00:57:27;;;;;;;47.65;26.67;;;-2.10;99.90;;;;;;2086992;28;20175;-75
2023/03/02 00:58:30;;;;;;;47.90;26.23;;;-2.10;99.90;;;;;;2082683;28;20017;-75
2023/03/02 00:59:31;;;;;;;47.80;26.27;;;-2.10;99.90;;;;;;2084043;28;20516;-72
2023/03/02 01:00:39;;;;;;;51.25;27.45;;;-2.10;99.90;;;;;;2081237;28;20121;-71
2023/03/02 01:01:41;;;;;;;52.10;28.30;;;-2.10;99.90;;;;;;2083153;28;20142;-73
2023/03/02 01:02:42;;;;;;;49.53;27.15;;;-2.10;99.90;;;;;;2098666;28;20679;-71
2023/03/02 01:03:44;;;;;;;47.50;26.70;;;-2.10;99.90;;;;;;2080327;28;20078;-72
2023/03/02 01:04:47;;;;;;;52.15;28.17;;;-2.10;99.90;;;;;;2076513;28;20029;-72
2023/03/02 01:05:48;;;;;;;50.80;28.02;;;-2.10;99.90;;;;;;2066028;28;20030;-72
2023/03/02 01:06:48;;;;;;;50.30;28.33;;;-2.10;99.90;;;;;;2072102;28;20036;-71
2023/03/02 01:07:49;;;;;;;50.10;27.38;;;-2.10;99.90;;;;;;2071327;28;20462;-71
2023/03/02 01:08:49;;;;;;;49.83;27.65;;;-2.10;99.90;;;;;;2076222;28;20120;-72
2023/03/02 01:09:50;;;;;;;48.35;27.38;;;-2.10;99.90;;;;;;2067619;28;20574;-71
2023/03/02 01:10:51;;;;;;;49.92;27.67;;;-2.10;99.90;;;;;;2075997;28;20068;-72
2023/03/02 01:11:52;;;;;;;53.10;29.13;;;-2.10;99.90;;;;;;2097652;28;20020;-72
2023/03/02 01:12:52;;;;;;;57.10;29.60;;;-2.10;99.90;;;;;;2080633;28;20033;-72
2023/03/02 01:13:53;;;;;;;54.85;29.65;;;-2.10;99.90;;;;;;2093727;28;20028;-72
2023/03/02 01:14:54;;;;;;;58.33;29.77;;;-2.10;99.90;;;;;;2093702;28;20064;-69
2023/03/02 01:16:03;;;;;;;51.70;29.13;;;-2.20;99.90;;;;;;2093516;28;20045;-71
2023/03/02 01:17:06;;;;;;;50.10;27.88;;;-2.10;99.90;;;;;;2091473;28;20028;-71
2023/03/02 01:18:06;;;;;;;51.80;28.23;;;-2.20;99.90;;;;;;2084030;28;20496;-71
2023/03/02 01:19:07;;;;;;;52.35;28.33;;;-2.20;99.90;;;;;;2077277;28;20017;-71
2023/03/02 01:20:09;;;;;;;49.97;28.23;;;-2.20;99.90;;;;;;2075541;28;20025;-70
2023/03/02 01:21:14;;;;;;;50.42;28.10;;;-2.20;99.90;;;;;;2078359;28;20025;-71
2023/03/02 01:22:15;;;;;;;54.40;29.00;;;-2.20;99.90;;;;;;2078586;28;20523;-72
2023/03/02 01:23:15;;;;;;;53.72;29.60;;;-2.20;99.90;;;;;;2078509;28;20037;-71
2023/03/02 01:24:16;;;;;;;55.00;29.83;;;-2.30;99.90;;;;;;2079396;28;20100;-71
2023/03/02 01:25:17;;;;;;;51.95;27.88;;;-2.20;99.90;;;;;;2083160;28;20044;-71
2023/03/02 01:26:17;;;;;;;54.05;28.08;;;-2.20;99.90;;;;;;2081876;28;20021;-71
2023/03/02 01:27:19;;;;;;;55.83;29.08;;;-2.30;99.90;;;;;;2076419;28;20126;-71
2023/03/02 01:28:19;;;;;;;55.25;29.58;;;-2.30;99.90;;;;;;2081521;28;20025;-72
2023/03/02 01:29:20;;;;;;;54.00;28.55;;;-2.30;99.90;;;;;;2077196;28;20534;-74
2023/03/02 01:30:21;;;;;;;53.53;29.17;;;-2.30;99.90;;;;;;2073727;28;20038;-71
2023/03/02 01:31:22;;;;;;;50.53;28.15;;;-2.30;99.90;;;;;;2079938;28;20029;-71
2023/03/02 01:32:22;;;;;;;50.45;28.08;;;-2.30;99.90;;;;;;2081397;28;20512;-71
2023/03/02 01:33:23;;;;;;;54.20;28.30;;;-2.30;99.90;;;;;;2085224;28;20038;-71
2023/03/02 01:34:24;;;;;;;57.45;30.23;;;-2.30;99.90;;;;;;2100151;28;20024;-71
2023/03/02 01:35:24;;;;;;;54.40;29.02;;;-2.30;99.90;;;;;;2085229;28;20503;-71
2023/03/02 01:36:25;;;;;;;56.67;29.02;;;-2.30;99.90;;;;;;2082209;28;20036;-72
2023/03/02 01:37:25;;;;;;;51.10;28.02;;;-2.30;99.90;;;;;;2082471;28;20040;-72
2023/03/02 01:38:27;;;;;;;52.05;28.80;;;-2.30;99.90;;;;;;2094954;28;20089;-71
2023/03/02 01:39:28;;;;;;;52.28;27.45;;;-2.40;99.90;;;;;;2091710;28;20768;-71
2023/03/02 01:40:28;;;;;;;53.17;27.85;;;-2.30;99.90;;;;;;2090436;28;20052;-72
2023/03/02 01:41:30;;;;;;;52.40;28.10;;;-2.30;99.90;;;;;;2081781;28;20138;-73
2023/03/02 01:42:39;;;;;;;51.60;27.52;;;-2.40;99.90;;;;;;2074252;28;20124;-73
2023/03/02 01:43:40;;;;;;;53.47;28.85;;;-2.30;99.90;;;;;;2081976;28;20118;-72
2023/03/02 01:44:47;;;;;;;51.80;28.27;;;-2.40;99.90;;;;;;2083573;28;20110;-72
2023/03/02 01:45:55;;;;;;;50.97;27.45;;;-2.40;99.90;;;;;;2082971;28;20412;-72
2023/03/02 01:47:32;;;;;;;51.83;27.52;;;-2.40;99.90;;;;;;2070926;28;20029;-73
2023/03/02 01:48:58;;;;;;;53.47;27.40;;;-2.40;99.90;;;;;;2086002;28;20029;-73
2023/03/02 01:50:29;;;;;;;55.65;27.58;;;-2.40;99.90;;;;;;2080710;28;20089;-72
2023/03/02 01:51:41;;;;;;;53.92;27.55;;;-2.40;99.90;;;;;;2081959;28;20035;-72
2023/03/02 01:52:42;;;;;;;53.90;27.90;;;-2.50;99.90;;;;;;2078969;28;20024;-71
2023/03/02 01:53:45;;;;;;;54.55;28.25;;;-2.40;99.90;;;;;;2072092;28;20524;-72
2023/03/02 01:54:48;;;;;;;51.85;27.58;;;-2.50;99.90;;;;;;2081469;28;20517;-72
2023/03/02 01:55:50;;;;;;;51.20;28.55;;;-2.50;99.90;;;;;;2092283;28;20515;-73
2023/03/02 01:56:59;;;;;;;52.92;28.25;;;-2.50;99.90;;;;;;2083322;28;20029;-72
2023/03/02 01:58:02;;;;;;;55.92;29.67;;;-2.50;99.90;;;;;;2089088;28;20157;-71
2023/03/02 01:59:07;;;;;;;54.05;28.20;;;-2.50;99.90;;;;;;2087112;28;20028;-72
2023/03/02 02:00:18;;;;;;;52.00;28.25;;;-2.50;99.90;;;;;;2079690;28;20029;-73
2023/03/02 02:01:21;;;;;;;54.75;28.15;;;-2.50;99.90;;;;;;2080342;28;20032;-72
2023/03/02 02:02:22;;;;;;;54.83;28.92;;;-2.50;99.90;;;;;;2079922;28;20117;-71
2023/03/02 02:03:27;;;;;;;57.67;29.63;;;-2.50;99.90;;;;;;2096310;28;20503;-72
2023/03/02 02:04:30;;;;;;;54.65;28.15;;;-2.50;99.90;;;;;;2086383;28;20033;-71
2023/03/02 02:05:31;;;;;;;52.00;27.85;;;-2.50;99.90;;;;;;2087167;28;20519;-73
2023/03/02 02:06:37;;;;;;;56.08;29.60;;;-2.50;99.90;;;;;;2078554;28;20086;-72
2023/03/02 02:07:38;;;;;;;59.90;29.23;;;-2.50;99.90;;;;;;2082347;28;20044;-72
2023/03/02 02:08:39;;;;;;;51.20;28.10;;;-2.50;99.90;;;;;;2074113;28;20033;-72
2023/03/02 02:09:44;;;;;;;53.95;28.58;;;-2.50;99.90;;;;;;2095263;28;20028;-72
2023/03/02 02:10:45;;;;;;;52.28;27.77;;;-2.60;99.90;;;;;;2083531;28;20033;-72
2023/03/02 02:11:46;;;;;;;53.60;27.33;;;-2.60;99.90;;;;;;2076584;28;20033;-72
2023/03/02 02:12:46;;;;;;;53.13;27.23;;;-2.60;99.90;;;;;;2084619;28;20557;-72
2023/03/02 02:13:47;;;;;;;51.22;27.67;;;-2.60;99.90;;;;;;2087775;28;20029;-73
2023/03/02 02:14:49;;;;;;;51.72;27.60;;;-2.60;99.90;;;;;;2083713;28;20028;-72
2023/03/02 02:15:50;;;;;;;54.03;27.90;;;-2.60;99.90;;;;;;2075902;28;20038;-71
2023/03/02 02:16:51;;;;;;;52.70;28.38;;;-2.60;99.90;;;;;;2087091;28;20089;-72
2023/03/02 02:17:53;;;;;;;51.20;26.98;;;-2.60;99.90;;;;;;2090442;28;20079;-72
2023/03/02 02:18:54;;;;;;;50.65;26.60;;;-2.60;99.90;;;;;;2076687;28;20092;-72
2023/03/02 02:20:18;;;;;;;51.60;27.38;;;-2.70;99.90;;;;;;2078898;28;20104;-72
2023/03/02 02:21:20;;;;;;;51.72;26.77;;;-2.70;99.90;;;;;;2079102;28;20033;-72
2023/03/02 02:22:52;;;;;;;52.72;27.27;;;-2.60;99.90;;;;;;2084667;28;20158;-71
2023/03/02 02:24:02;;;;;;;51.85;26.65;;;-2.60;99.90;;;;;;2092489;28;20032;-73
2023/03/02 02:25:05;;;;;;;;;;;-2.60;99.90;;;;;;2085342;28;20165;-73
2023/03/02 02:26:17;;;;;;;52.75;26.17;;;-2.60;99.90;;;;;;2066587;28;20384;-72
2023/03/02 02:27:18;;;;;;;54.75;26.65;;;-2.60;99.90;;;;;;2074446;28;20587;-71
2023/03/02 02:28:27;;;;;;;52.97;27.40;;;-2.60;99.90;;;;;;2081140;28;20039;-71
2023/03/02 02:29:31;;;;;;;48.15;26.05;;;-2.60;99.90;;;;;;2087404;28;20542;-72
2023/03/02 02:30:36;;;;;;;52.88;27.13;;;-2.60;99.90;;;;;;2086095;28;20036;-72
2023/03/02 02:31:46;;;;;;;54.10;27.67;;;-2.60;99.90;;;;;;2085647;28;20078;-71
2023/03/02 02:32:48;;;;;;;55.35;28.15;;;-2.60;99.90;;;;;;2078565;28;20479;-70
2023/03/02 02:33:57;;;;;;;47.58;25.80;;;-2.70;99.90;;;;;;2079675;28;20041;-71
2023/03/02 02:35:11;;;;;;;49.55;26.02;;;-2.70;99.90;;;;;;2071507;28;20030;-72
2023/03/02 02:36:18;;;;;;;48.90;26.17;;;-2.70;99.90;;;;;;2074389;28;20027;-71
2023/03/02 02:37:44;;;;;;;51.97;26.85;;;-2.70;99.90;;;;;;2074071;28;20136;-71
2023/03/02 02:38:47;;;;;;;49.75;25.85;;;-2.70;99.90;;;;;;2094331;28;20036;-71
2023/03/02 02:39:50;;;;;;;49.95;26.23;;;-2.70;99.90;;;;;;2085430;28;20028;-71
2023/03/02 02:41:00;;;;;;;51.80;26.15;;;-2.80;99.90;;;;;;2077803;28;20546;-71
2023/03/02 02:42:10;;;;;;;50.42;26.20;;;-2.80;99.90;;;;;;2077160;28;20307;-71
2023/03/02 02:43:12;;;;;;;51.67;27.20;;;-2.80;99.90;;;;;;2078324;28;20032;-72
2023/03/02 02:44:15;;;;;;;53.75;27.20;;;-2.80;99.90;;;;;;2092613;28;20036;-72
2023/03/02 02:45:24;;;;;;;50.92;26.92;;;-2.80;99.90;;;;;;2078696;28;20021;-71
2023/03/02 02:46:25;;;;;;;52.47;26.73;;;-2.80;99.90;;;;;;2080178;28;20559;-70
2023/03/02 02:47:27;;;;;;;59.85;28.58;;;-2.80;99.90;;;;;;2097087;28;20513;-71
2023/03/02 02:48:30;;;;;;;58.22;28.90;;;-2.80;99.90;;;;;;2086095;28;20082;-72
2023/03/02 02:49:37;;;;;;;62.80;29.50;;;-2.80;99.90;;;;;;2078601;28;20029;-71
2023/03/02 02:50:38;;;;;;;63.13;30.10;;;-2.80;99.90;;;;;;2078228;28;20067;-71
2023/03/02 02:51:39;;;;;;;61.90;29.10;;;-2.80;99.90;;;;;;2086489;28;20539;-72
2023/03/02 02:52:40;;;;;;;60.08;29.13;;;-2.80;99.90;;;;;;2097395;28;20024;-72
2023/03/02 02:53:47;;;;;;;62.80;30.10;;;-2.80;99.90;;;;;;2079587;28;20388;-71
2023/03/02 02:54:51;;;;;;;62.10;28.65;;;-2.80;99.90;;;;;;2079282;28;20040;-71
2023/03/02 02:55:55;;;;;;;56.95;28.63;;;-2.80;99.90;;;;;;2095250;28;20643;-71
2023/03/02 02:56:58;;;;;;;56.83;28.58;;;-2.80;99.90;;;;;;2082541;28;20032;-71
2023/03/02 02:58:08;;;;;;;56.55;28.20;;;-2.80;99.90;;;;;;2085671;28;20377;-71
2023/03/02 02:59:27;;;;;;;56.80;28.67;;;-2.80;99.90;;;;;;2086489;28;20534;-71
2023/03/02 03:00:32;;;;;;;56.95;28.42;;;-2.80;99.90;;;;;;2079119;28;20049;-72
2023/03/02 03:01:33;;;;;;;54.60;27.73;;;-2.80;99.90;;;;;;2080559;28;20456;-71
2023/03/02 03:02:42;;;;;;;53.10;26.95;;;-2.80;99.90;;;;;;2079625;28;20355;-72
2023/03/02 03:03:55;;;;;;;54.45;28.08;;;-2.80;99.90;;;;;;2086575;28;20033;-72
2023/03/02 03:05:02;;;;;;;54.83;28.05;;;-2.80;99.90;;;;;;2081176;28;20039;-71
2023/03/02 03:06:07;;;;;;;63.90;29.15;;;-2.90;99.90;;;;;;2080967;28;20103;-71
2023/03/02 03:07:12;;;;;;;71.93;31.73;;;-2.80;99.90;;;;;;2079310;28;20021;-70
2023/03/02 03:08:47;;;;;;;71.28;31.88;;;-2.90;99.90;;;;;;2080640;28;20536;-71
2023/03/02 03:10:09;;;;;;;71.03;30.98;;;-2.90;99.90;;;;;;2085296;28;20028;-71
2023/03/02 03:11:22;;;;;;;69.28;30.30;;;-2.90;99.90;;;;;;2084077;28;20508;-71
2023/03/02 03:12:25;;;;;;;67.65;30.23;;;-2.90;99.90;;;;;;2087891;28;20091;-70
2023/03/02 03:13:26;;;;;;;61.42;28.55;;;-2.90;99.90;;;;;;2085685;28;20044;-71
2023/03/02 03:14:33;;;;;;;62.25;30.30;;;-2.90;99.90;;;;;;2077802;28;20044;-72
2023/03/02 03:15:33;;;;;;;62.80;29.88;;;-2.90;99.90;;;;;;2085346;28;20033;-81
2023/03/02 03:16:36;;;;;;;63.75;28.98;;;-2.90;99.90;;;;;;2074866;28;20064;-72
2023/03/02 03:17:36;;;;;;;69.75;31.27;;;-2.90;99.90;;;;;;2067574;28;20113;-72
2023/03/02 03:18:37;;;;;;;64.80;30.02;;;-2.90;99.90;;;;;;2071251;28;20041;-71
2023/03/02 03:19:41;;;;;;;66.70;31.23;;;-2.90;99.90;;;;;;2080938;28;20061;-73
2023/03/02 03:20:44;;;;;;;63.65;29.65;;;-2.90;99.90;;;;;;2096708;28;20041;-74
2023/03/02 03:21:46;;;;;;;63.67;30.33;;;-2.90;99.90;;;;;;2085039;28;20028;-75
2023/03/02 03:22:46;;;;;;;61.83;29.67;;;-2.90;99.90;;;;;;2078632;28;20029;-74
2023/03/02 03:23:48;;;;;;;61.38;29.60;;;-2.90;99.90;;;;;;2095189;28;20035;-74
2023/03/02 03:24:49;;;;;;;67.72;31.15;;;-2.90;99.90;;;;;;2078515;28;20060;-74
2023/03/02 03:25:51;;;;;;;65.85;31.05;;;-2.90;99.90;;;;;;2078367;28;20036;-74
2023/03/02 03:26:56;;;;;;;65.95;31.10;;;-2.90;99.90;;;;;;2089398;28;20039;-74
2023/03/02 03:27:57;;;;;;;68.10;31.02;;;-2.90;99.90;;;;;;2083642;28;20862;-74
2023/03/02 03:28:58;;;;;;;68.40;31.17;;;-3.00;99.90;;;;;;2091984;28;20158;-75
2023/03/02 03:30:00;;;;;;;70.82;31.83;;;-3.00;99.90;;;;;;2070604;28;20029;-74
2023/03/02 03:31:03;;;;;;;81.57;34.85;;;-3.00;99.90;;;;;;2071226;28;20299;-74
2023/03/02 03:32:04;;;;;;;79.50;32.53;;;-3.00;99.90;;;;;;2086820;28;20051;-74
2023/03/02 03:33:04;;;;;;;71.78;31.77;;;-3.00;99.90;;;;;;2079991;28;20607;-74
2023/03/02 03:34:06;;;;;;;65.18;31.98;;;-3.00;99.90;;;;;;2074801;28;20029;-73
2023/03/02 03:35:11;;;;;;;67.18;30.65;;;-3.00;99.90;;;;;;2076892;28;20407;-73
2023/03/02 03:36:12;;;;;;;59.67;29.13;;;-3.00;99.90;;;;;;2069913;28;20061;-73
2023/03/02 03:37:17;;;;;;;58.42;29.02;;;-3.00;99.90;;;;;;2085995;28;20037;-73
2023/03/02 03:38:17;;;;;;;61.10;29.48;;;-3.00;99.90;;;;;;2096295;28;20275;-74
2023/03/02 03:39:20;;;;;;;59.80;29.23;;;-3.00;99.90;;;;;;2082734;28;20025;-73
2023/03/02 03:40:22;;;;;;;55.97;27.73;;;-3.10;99.90;;;;;;2082389;28;20491;-73
2023/03/02 03:41:23;;;;;;;57.60;29.17;;;-3.10;99.90;;;;;;2085381;28;20127;-73
2023/03/02 03:42:23;;;;;;;57.22;28.45;;;-3.10;99.90;;;;;;2079133;28;20456;-73
2023/03/02 03:43:25;;;;;;;53.40;27.88;;;-3.10;99.90;;;;;;2080143;28;20025;-74
2023/03/02 03:44:28;;;;;;;56.47;28.23;;;-3.10;99.90;;;;;;2077725;28;20037;-74
2023/03/02 03:45:29;;;;;;;63.05;30.42;;;-3.10;99.90;;;;;;2086009;28;20053;-74
2023/03/02 03:46:31;;;;;;;64.72;32.60;;;-3.10;99.90;;;;;;2086003;28;20513;-74
2023/03/02 03:47:32;;;;;;;68.53;33.05;;;-3.10;99.90;;;;;;2097111;28;20151;-73
2023/03/02 03:48:33;;;;;;;74.60;35.15;;;-3.10;99.90;;;;;;2087394;28;20033;-73
2023/03/02 03:49:34;;;;;;;76.13;34.72;;;-3.10;99.90;;;;;;2075692;28;20025;-73
2023/03/02 03:50:35;;;;;;;71.45;34.05;;;-3.10;99.90;;;;;;2071295;28;20025;-73
2023/03/02 03:51:36;;;;;;;68.68;31.77;;;-3.10;99.90;;;;;;2072245;28;20400;-73
2023/03/02 03:52:39;;;;;;;66.15;32.33;;;-3.10;99.90;;;;;;2069616;28;20385;-74
2023/03/02 03:53:58;;;;;;;66.70;32.85;;;-3.10;99.90;;;;;;2080035;28;20033;-74
2023/03/02 03:55:02;;;;;;;66.85;32.55;;;-3.10;99.90;;;;;;2084147;28;20075;-74
2023/03/02 03:56:03;;;;;;;63.65;31.83;;;-3.10;99.90;;;;;;2076807;28;20568;-73
2023/03/02 03:57:03;;;;;;;65.32;31.98;;;-3.10;99.90;;;;;;2076979;28;20021;-73
2023/03/02 03:58:04;;;;;;;60.05;30.45;;;-3.10;99.90;;;;;;2071375;28;20578;-73
2023/03/02 03:59:07;;;;;;;65.15;33.28;;;-3.10;99.90;;;;;;2079039;28;20165;-73
2023/03/02 04:00:15;;;;;;;64.20;32.83;;;-3.10;99.90;;;;;;2090964;28;21878;-73
2023/03/02 04:01:21;;;;;;;63.75;31.50;;;-3.20;99.90;;;;;;2085938;28;20509;-73
2023/03/02 04:02:21;;;;;;;60.80;30.50;;;-3.20;99.90;;;;;;2070991;28;20421;-73
2023/03/02 04:03:24;;;;;;;62.42;31.75;;;-3.20;99.90;;;;;;2070669;28;20715;-73
2023/03/02 04:04:33;;;;;;;60.70;30.55;;;-3.10;99.90;;;;;;2071037;28;20064;-74
2023/03/02 04:05:36;;;;;;;58.53;29.95;;;-3.10;99.90;;;;;;2069550;28;20033;-73
2023/03/02 04:06:38;;;;;;;59.60;30.35;;;-3.20;99.90;;;;;;2080213;28;20612;-73
2023/03/02 04:07:39;;;;;;;63.22;30.85;;;-3.20;99.90;;;;;;2075147;28;20029;-73
2023/03/02 04:08:40;;;;;;;59.28;30.00;;;-3.20;99.90;;;;;;2075762;28;20026;-73
2023/03/02 04:09:41;;;;;;;59.17;30.23;;;-3.20;99.90;;;;;;2090313;28;20430;-73
2023/03/02 04:10:44;;;;;;;58.88;30.52;;;-3.20;99.90;;;;;;2083564;28;20033;-73
2023/03/02 04:11:48;;;;;;;57.33;29.95;;;-3.20;99.90;;;;;;2069825;28;20037;-74
2023/03/02 04:12:49;;;;;;;59.13;30.05;;;-3.20;99.90;;;;;;2088107;28;20149;-74
2023/03/02 04:13:49;;;;;;;60.55;30.85;;;-3.20;99.90;;;;;;2087955;28;20036;-74
2023/03/02 04:14:50;;;;;;;59.17;31.10;;;-3.20;99.90;;;;;;2079936;28;20021;-74
2023/03/02 04:15:50;;;;;;;60.53;31.58;;;-3.20;99.90;;;;;;2079952;28;20029;-74
2023/03/02 04:16:52;;;;;;;59.97;30.95;;;-3.20;99.90;;;;;;2078831;28;20496;-73
2023/03/02 04:17:54;;;;;;;59.75;31.23;;;-3.20;99.90;;;;;;2079392;28;20024;-74
2023/03/02 04:18:56;;;;;;;60.65;30.50;;;-3.20;99.90;;;;;;2077149;28;20029;-73
2023/03/02 04:19:58;;;;;;;58.50;30.77;;;-3.20;99.90;;;;;;2077252;28;20025;-73
2023/03/02 04:20:58;;;;;;;56.30;29.73;;;-3.20;99.90;;;;;;2077606;28;20231;-73
2023/03/02 04:22:00;;;;;;;57.42;30.08;;;-3.20;99.90;;;;;;2074205;28;20086;-74
2023/03/02 04:23:01;;;;;;;57.03;29.35;;;-3.20;99.90;;;;;;2068419;28;20100;-74
2023/03/02 04:24:01;;;;;;;57.50;29.85;;;-3.20;99.90;;;;;;2086636;28;20123;-74
2023/03/02 04:25:03;;;;;;;58.42;29.48;;;-3.20;99.90;;;;;;2082466;28;20049;-74
2023/03/02 04:26:04;;;;;;;58.92;30.73;;;-3.20;99.90;;;;;;2087199;28;20033;-74
2023/03/02 04:27:05;;;;;;;61.08;30.42;;;-3.20;99.90;;;;;;2087021;28;20034;-74
2023/03/02 04:28:07;;;;;;;62.45;30.77;;;-3.30;99.90;;;;;;2087929;28;20521;-74
2023/03/02 04:29:12;;;;;;;58.28;31.20;;;-3.30;99.90;;;;;;2077036;28;20032;-74
2023/03/02 04:30:15;;;;;;;60.65;30.88;;;-3.30;99.90;;;;;;2077916;28;20112;-74
2023/03/02 04:31:16;;;;;;;57.72;30.58;;;-3.30;99.90;;;;;;2098052;28;20769;-73
2023/03/02 04:32:17;;;;;;;59.60;30.67;;;-3.30;99.90;;;;;;2085385;28;20044;-73
2023/03/02 04:33:22;;;;;;;58.10;29.05;;;-3.30;99.90;;;;;;2088333;28;20060;-73
2023/03/02 04:34:24;;;;;;;57.38;30.67;;;-3.30;99.90;;;;;;2086923;28;20508;-73
2023/03/02 04:35:25;;;;;;;60.72;31.15;;;-3.30;99.90;;;;;;2071480;28;20646;-73
2023/03/02 04:36:26;;;;;;;64.18;31.95;;;-3.30;99.90;;;;;;2062354;28;20041;-73
2023/03/02 04:37:26;;;;;;;62.60;31.33;;;-3.30;99.90;;;;;;2077482;28;20025;-73
2023/03/02 04:38:28;;;;;;;61.25;31.13;;;-3.30;99.90;;;;;;2093597;28;20024;-73
2023/03/02 04:39:28;;;;;;;64.55;32.03;;;-3.30;99.90;;;;;;2078737;28;20021;-72
2023/03/02 04:40:29;;;;;;;61.80;31.48;;;-3.30;99.90;;;;;;2078386;28;20076;-74
2023/03/02 04:41:30;;;;;;;56.72;29.95;;;-3.30;99.90;;;;;;2078342;28;20040;-73
2023/03/02 04:42:30;;;;;;;61.97;31.83;;;-3.30;99.90;;;;;;2077515;28;20033;-73
2023/03/02 04:43:31;;;;;;;63.42;32.03;;;-3.30;99.90;;;;;;2077470;28;20021;-73
2023/03/02 04:44:31;;;;;;;60.72;31.75;;;-3.30;99.90;;;;;;2080653;28;20033;-72
2023/03/02 04:45:32;;;;;;;63.50;32.75;;;-3.30;99.90;;;;;;2079551;28;20161;-73
2023/03/02 04:46:33;;;;;;;61.05;32.55;;;-3.30;99.90;;;;;;2079795;28;20045;-73
2023/03/02 04:47:33;;;;;;;66.72;31.88;;;-3.30;99.90;;;;;;2072328;28;20075;-73
2023/03/02 04:48:34;;;;;;;62.40;31.92;;;-3.40;99.90;;;;;;2080393;28;20140;-73
2023/03/02 04:49:34;;;;;;;60.15;31.60;;;-3.40;99.90;;;;;;2084417;28;20046;-73
2023/03/02 04:50:36;;;;;;;60.35;31.23;;;-3.30;99.90;;;;;;2075700;28;20040;-74
2023/03/02 04:51:39;;;;;;;59.40;30.33;;;-3.40;99.90;;;;;;2077903;28;20022;-73
2023/03/02 04:52:41;;;;;;;59.72;31.15;;;-3.40;99.90;;;;;;2076056;28;20201;-74
2023/03/02 04:53:41;;;;;;;58.97;30.67;;;-3.40;99.90;;;;;;2073998;28;20029;-72
2023/03/02 04:54:42;;;;;;;60.75;32.08;;;-3.40;99.90;;;;;;2095032;28;20036;-74
2023/03/02 04:55:42;;;;;;;58.13;30.10;;;-3.40;99.90;;;;;;2086688;28;20044;-75
2023/03/02 04:56:47;;;;;;;60.92;31.58;;;-3.40;99.90;;;;;;2080017;28;20025;-73
2023/03/02 04:57:48;;;;;;;59.17;30.45;;;-3.40;99.90;;;;;;2075721;28;20053;-73
2023/03/02 04:58:49;;;;;;;59.85;30.92;;;-3.40;99.90;;;;;;2077745;28;20041;-74
2023/03/02 04:59:49;;;;;;;57.78;30.00;;;-3.40;99.90;;;;;;2077979;28;20053;-73
2023/03/02 05:00:50;;;;;;;62.53;31.00;;;-3.40;99.90;;;;;;2077606;28;20048;-72
2023/03/02 05:01:52;;;;;;;63.83;31.88;;;-3.40;99.90;;;;;;2080740;28;20036;-73
2023/03/02 05:02:53;;;;;;;59.90;31.65;;;-3.40;99.90;;;;;;2078506;28;20025;-73
2023/03/02 05:03:53;;;;;;;59.35;30.10;;;-3.50;99.90;;;;;;2083073;28;20028;-74
2023/03/02 05:04:54;;;;;;;59.55;31.45;;;-3.50;99.90;;;;;;2092540;28;20111;-74
2023/03/02 05:05:56;;;;;;;63.85;31.80;;;-3.40;99.90;;;;;;2080235;28;20343;-74
2023/03/02 05:06:56;;;;;;;61.95;32.55;;;-3.50;99.90;;;;;;2078245;28;20024;-74
2023/03/02 05:07:58;;;;;;;61.85;32.15;;;-3.50;99.90;;;;;;2076941;28;20049;-72
2023/03/02 05:08:59;;;;;;;63.97;31.98;;;-3.50;99.90;;;;;;2085692;28;20054;-74
2023/03/02 05:09:59;;;;;;;63.03;32.17;;;-3.50;99.90;;;;;;2088760;28;20332;-74
2023/03/02 05:11:00;;;;;;;64.68;33.17;;;-3.50;99.90;;;;;;2076240;28;20028;-74
2023/03/02 05:12:01;;;;;;;65.75;33.78;;;-3.50;99.90;;;;;;2080265;28;20040;-74
2023/03/02 05:13:03;;;;;;;64.57;32.50;;;-3.50;99.90;;;;;;2070085;28;20372;-75
2023/03/02 05:14:07;;;;;;;61.10;31.35;;;-3.50;99.90;;;;;;2078450;28;20029;-73
2023/03/02 05:15:07;;;;;;;62.67;31.40;;;-3.50;99.90;;;;;;2079373;28;20033;-73
2023/03/02 05:16:08;;;;;;;64.43;32.55;;;-3.50;99.90;;;;;;2079849;28;20109;-74
2023/03/02 05:17:08;;;;;;;63.53;32.67;;;-3.50;99.90;;;;;;2077508;28;20086;-73
2023/03/02 05:18:10;;;;;;;64.40;32.00;;;-3.50;99.90;;;;;;2069208;28;20053;-73
2023/03/02 05:19:11;;;;;;;61.42;32.33;;;-3.50;99.90;;;;;;2077388;28;20025;-73
2023/03/02 05:20:12;;;;;;;64.22;32.10;;;-3.50;99.90;;;;;;2077855;28;20507;-72